Startpagina
METAR-TAF:

METAR-TAF

Vliegvelden :

Nörvenich, Duitsland

breedte: 50-50N, lengte: 006-40E, hoogte: 118 m

Actueel weer

Dit bericht is 54 minuten geleden gemaakt, om 07:20 UTC
Wind 3 kt uit variabele richting
Temperatuur 7°C
Vochtigheid 87%
Druk 1023 hPa
Zicht 10 km of meer
Weinig wolken op 8000 ft
Gebroken wolken op 28000 ft

METAR: ETNN 180720Z VRB03KT 9999 FEW080 BKN280 07/05 Q1023 BLU+BLU TEMPO BLU+

Tijdstip: 10:14 (08:14 UTC)

Verwachting

Dit bericht is 1 uur en het 11 minuten geleden gemaakt, om 07:03 UTC
Verwachting geldig van 18 om 08 UTC tot 18 om 17 UTC
Wind 5 kt uit het zuidoosten
Zicht 10 km of meer
Verspreide wolken op 8000 ft

TAF: ETNN 180703Z 1808/1817 13005KT 9999 NSW SCT080 BY ETGL

Waarnemingen en weersverwachtingen van meer dan 4000 vliegvelden (METAR en TAF).

De beschikbare stations zijn de gele en rode punten op de kaart.

Ga met uw muis naar het station om de naam te zien.

Klik dan om waarnemingen en weersverwachtingen te zien.

kaart wijzigen: klik op de groene knoppen met een zwart kruis om in te zoomen, op de groene knop met een streepje om uit te zoomen of op de groene pijlen voor aangrenzende kaarten.


METAR-TAF: